KZD weather

Krakor Airport
Krakor, Pousaat, Cambodia

Public forecast

Using degrees Celsius for public forecast. Weather courtesy of forecast.io.

METAR (pilot weather report)

Closest report is Siem Reap International Airport, 55.9 nm (103.6 km) NNW. Retrieved 2019/02/21 05:00 UTC (17 minutes ago):

VDSR 210500Z 23005KT 9999 SCT015 SCT040 33/21 Q1014

TAF (pilot weather forecast)

Forecast is more than 12 hours old.

Closest forecast is Siem Reap International Airport, 55.9 nm (103.6 km) NNW. Retrieved 2019/02/20 00:00 UTC (1 day ago):

TAF VDPP 202300Z 2100/2118 15009KT 9999 FEW017= TAF VDSR 202300Z 2100/2118 05006KT 9999 FEW017